sensor_id;sensor_type;location;lat;lon;timestamp;pressure;altitude;pressure_sealevel;temperature;humidity
80699;BME280;70062;51.658;5.658;2023-12-07T00:01:54;101782.85;;;23.93;27.12
80699;BME280;70062;51.658;5.658;2023-12-07T00:04:19;101781.61;;;23.93;27.07
80699;BME280;70062;51.658;5.658;2023-12-07T00:06:44;101782.04;;;23.82;26.99
80699;BME280;70062;51.658;5.658;2023-12-07T00:09:10;101787.23;;;23.58;27.24
80699;BME280;70062;51.658;5.658;2023-12-07T00:11:37;101791.20;;;23.39;27.48
80699;BME280;70062;51.658;5.658;2023-12-07T00:14:03;101785.52;;;23.48;27.77
80699;BME280;70062;51.658;5.658;2023-12-07T00:16:28;101778.73;;;23.67;27.48
80699;BME280;70062;51.658;5.658;2023-12-07T00:18:53;101780.70;;;23.88;27.39
80699;BME280;70062;51.658;5.658;2023-12-07T00:21:19;101786.88;;;24.32;27.12
80699;BME280;70062;51.658;5.658;2023-12-07T00:23:44;101786.55;;;24.86;26.44
80699;BME280;70062;51.658;5.658;2023-12-07T00:26:10;101785.89;;;25.29;25.91
80699;BME280;70062;51.658;5.658;2023-12-07T00:28:36;101779.28;;;25.56;25.45
80699;BME280;70062;51.658;5.658;2023-12-07T00:31:01;101781.62;;;25.69;25.15
80699;BME280;70062;51.658;5.658;2023-12-07T00:33:27;101779.86;;;25.67;24.96
80699;BME280;70062;51.658;5.658;2023-12-07T00:35:52;101777.17;;;25.58;24.93
80699;BME280;70062;51.658;5.658;2023-12-07T00:38:17;101776.60;;;25.40;25.07
80699;BME280;70062;51.658;5.658;2023-12-07T00:40:43;101773.33;;;25.08;25.20
80699;BME280;70062;51.658;5.658;2023-12-07T00:43:08;101778.06;;;24.76;25.60
80699;BME280;70062;51.658;5.658;2023-12-07T00:45:33;101773.83;;;24.72;25.86
80699;BME280;70062;51.658;5.658;2023-12-07T00:47:59;101776.17;;;24.82;25.84
80699;BME280;70062;51.658;5.658;2023-12-07T00:50:24;101775.33;;;24.90;25.65
80699;BME280;70062;51.658;5.658;2023-12-07T00:52:50;101777.77;;;24.88;25.64
80699;BME280;70062;51.658;5.658;2023-12-07T00:55:15;101781.77;;;24.77;25.70
80699;BME280;70062;51.658;5.658;2023-12-07T00:57:41;101779.66;;;24.49;25.68
80699;BME280;70062;51.658;5.658;2023-12-07T01:00:07;101787.71;;;24.27;26.06
80699;BME280;70062;51.658;5.658;2023-12-07T01:02:33;101787.99;;;24.35;26.17
80699;BME280;70062;51.658;5.658;2023-12-07T01:04:59;101786.70;;;24.51;26.03
80699;BME280;70062;51.658;5.658;2023-12-07T01:07:24;101780.09;;;24.62;25.94
80699;BME280;70062;51.658;5.658;2023-12-07T01:09:52;101780.64;;;24.63;25.87
80699;BME280;70062;51.658;5.658;2023-12-07T01:12:18;101779.15;;;24.51;25.86
80699;BME280;70062;51.658;5.658;2023-12-07T01:14:43;101784.19;;;24.25;26.02
80699;BME280;70062;51.658;5.658;2023-12-07T01:17:09;101787.73;;;24.11;26.21
80699;BME280;70062;51.658;5.658;2023-12-07T01:19:34;101786.99;;;24.24;26.37
80699;BME280;70062;51.658;5.658;2023-12-07T01:21:59;101786.28;;;24.42;26.29
80699;BME280;70062;51.658;5.658;2023-12-07T01:37:22;101798.81;;;24.30;26.40
80699;BME280;70062;51.658;5.658;2023-12-07T01:39:48;101797.55;;;24.46;26.19
80699;BME280;70062;51.658;5.658;2023-12-07T01:42:14;101799.16;;;24.51;26.04
80699;BME280;70062;51.658;5.658;2023-12-07T01:44:39;101801.06;;;24.47;25.97
80699;BME280;70062;51.658;5.658;2023-12-07T01:47:05;101808.92;;;24.24;26.04
80699;BME280;70062;51.658;5.658;2023-12-07T01:49:34;101806.81;;;24.06;26.42
80699;BME280;70062;51.658;5.658;2023-12-07T01:52:00;101802.69;;;24.16;26.37
80699;BME280;70062;51.658;5.658;2023-12-07T01:54:25;101803.63;;;24.37;26.29
80699;BME280;70062;51.658;5.658;2023-12-07T01:56:51;101802.83;;;24.49;26.02
80699;BME280;70062;51.658;5.658;2023-12-07T01:59:17;101798.80;;;24.50;25.92
80699;BME280;70062;51.658;5.658;2023-12-07T02:01:43;101804.17;;;24.40;25.94
80699;BME280;70062;51.658;5.658;2023-12-07T02:04:09;101807.58;;;24.13;26.22
80699;BME280;70062;51.658;5.658;2023-12-07T02:06:35;101812.20;;;24.01;26.29
80699;BME280;70062;51.658;5.658;2023-12-07T02:09:00;101813.04;;;24.17;26.30
80699;BME280;70062;51.658;5.658;2023-12-07T02:11:26;101810.61;;;24.35;26.24
80699;BME280;70062;51.658;5.658;2023-12-07T02:13:52;101811.58;;;24.45;26.05
80699;BME280;70062;51.658;5.658;2023-12-07T02:16:34;101809.80;;;24.43;25.98
80699;BME280;70062;51.658;5.658;2023-12-07T02:22:13;101808.84;;;23.96;26.30
80699;BME280;70062;51.658;5.658;2023-12-07T02:25:08;101803.63;;;24.04;26.53
80699;BME280;70062;51.658;5.658;2023-12-07T02:27:41;101807.19;;;24.26;26.22
80699;BME280;70062;51.658;5.658;2023-12-07T02:30:09;101806.09;;;24.37;26.12
80699;BME280;70062;51.658;5.658;2023-12-07T02:32:36;101806.08;;;24.37;25.90
80699;BME280;70062;51.658;5.658;2023-12-07T02:35:02;101812.09;;;24.24;25.91
80699;BME280;70062;51.658;5.658;2023-12-07T02:37:32;101808.65;;;23.95;26.08
80699;BME280;70062;51.658;5.658;2023-12-07T02:39:58;101808.23;;;23.88;26.55
80699;BME280;70062;51.658;5.658;2023-12-07T02:54:25;101800.59;;;23.97;26.26
80699;BME280;70062;51.658;5.658;2023-12-07T02:56:50;101796.69;;;23.91;26.48
80699;BME280;70062;51.658;5.658;2023-12-07T02:59:15;101794.23;;;24.12;26.27
80699;BME280;70062;51.658;5.658;2023-12-07T03:01:41;101791.09;;;24.29;26.17
80699;BME280;70062;51.658;5.658;2023-12-07T03:04:06;101795.02;;;24.37;26.05
80699;BME280;70062;51.658;5.658;2023-12-07T03:06:31;101802.02;;;24.33;25.99
80699;BME280;70062;51.658;5.658;2023-12-07T03:08:57;101798.27;;;24.13;26.00
80699;BME280;70062;51.658;5.658;2023-12-07T03:11:24;101798.07;;;23.90;26.34
80699;BME280;70062;51.658;5.658;2023-12-07T03:13:49;101794.61;;;23.95;26.42
80699;BME280;70062;51.658;5.658;2023-12-07T03:16:15;101789.02;;;24.17;26.20
80699;BME280;70062;51.658;5.658;2023-12-07T03:18:40;101793.23;;;24.31;26.03
80699;BME280;70062;51.658;5.658;2023-12-07T03:21:06;101792.37;;;24.34;25.95
80699;BME280;70062;51.658;5.658;2023-12-07T03:23:31;101799.66;;;24.27;25.94
80699;BME280;70062;51.658;5.658;2023-12-07T03:25:56;101803.98;;;24.04;26.02
80699;BME280;70062;51.658;5.658;2023-12-07T03:28:22;101800.13;;;23.85;26.43
80699;BME280;70062;51.658;5.658;2023-12-07T03:30:47;101802.01;;;23.98;26.38
80699;BME280;70062;51.658;5.658;2023-12-07T03:33:13;101804.45;;;24.17;26.13
80699;BME280;70062;51.658;5.658;2023-12-07T03:35:43;101805.33;;;24.30;25.90
80699;BME280;70062;51.658;5.658;2023-12-07T03:38:08;101804.45;;;24.31;25.97
80699;BME280;70062;51.658;5.658;2023-12-07T03:40:34;101809.04;;;24.20;25.84
80699;BME280;70062;51.658;5.658;2023-12-07T03:42:59;101804.77;;;23.94;26.21
80699;BME280;70062;51.658;5.658;2023-12-07T03:45:24;101802.22;;;23.83;26.37
80699;BME280;70062;51.658;5.658;2023-12-07T03:47:50;101806.23;;;24.00;26.43
80699;BME280;70062;51.658;5.658;2023-12-07T03:50:15;101811.66;;;24.19;26.13
80699;BME280;70062;51.658;5.658;2023-12-07T03:52:42;101815.47;;;24.28;25.88
80699;BME280;70062;51.658;5.658;2023-12-07T03:55:08;101818.12;;;24.29;25.99
80699;BME280;70062;51.658;5.658;2023-12-07T03:57:33;101816.17;;;24.14;25.81
80699;BME280;70062;51.658;5.658;2023-12-07T03:59:58;101813.13;;;23.86;26.08
80699;BME280;70062;51.658;5.658;2023-12-07T04:02:23;101817.47;;;23.83;26.40
80699;BME280;70062;51.658;5.658;2023-12-07T04:04:49;101824.83;;;24.01;26.22
80699;BME280;70062;51.658;5.658;2023-12-07T04:07:15;101829.71;;;24.16;26.15
80699;BME280;70062;51.658;5.658;2023-12-07T04:09:43;101834.59;;;24.46;25.91
80699;BME280;70062;51.658;5.658;2023-12-07T04:12:09;101841.43;;;24.97;25.56
80699;BME280;70062;51.658;5.658;2023-12-07T04:14:34;101839.75;;;25.50;24.88
80699;BME280;70062;51.658;5.658;2023-12-07T04:17:00;101828.61;;;25.86;24.53
80699;BME280;70062;51.658;5.658;2023-12-07T04:19:25;101829.38;;;26.06;24.02
80699;BME280;70062;51.658;5.658;2023-12-07T04:21:50;101828.67;;;26.11;23.86
80699;BME280;70062;51.658;5.658;2023-12-07T04:24:16;101830.79;;;26.06;23.75
80699;BME280;70062;51.658;5.658;2023-12-07T04:26:41;101826.15;;;25.92;23.73
80699;BME280;70062;51.658;5.658;2023-12-07T04:29:06;101837.20;;;25.73;23.98
80699;BME280;70062;51.658;5.658;2023-12-07T04:31:32;101841.85;;;25.48;24.01
80699;BME280;70062;51.658;5.658;2023-12-07T04:33:57;101845.24;;;25.18;24.31
80699;BME280;70062;51.658;5.658;2023-12-07T04:36:25;101847.80;;;24.80;24.69
80699;BME280;70062;51.658;5.658;2023-12-07T04:38:50;101845.69;;;24.52;25.12
80699;BME280;70062;51.658;5.658;2023-12-07T04:41:15;101845.60;;;24.66;25.25
80699;BME280;70062;51.658;5.658;2023-12-07T04:43:41;101842.11;;;24.94;25.00
80699;BME280;70062;51.658;5.658;2023-12-07T04:46:06;101839.60;;;25.13;24.83
80699;BME280;70062;51.658;5.658;2023-12-07T04:48:31;101845.80;;;25.23;24.65
80699;BME280;70062;51.658;5.658;2023-12-07T04:50:57;101842.80;;;25.22;24.49
80699;BME280;70062;51.658;5.658;2023-12-07T04:53:22;101846.59;;;25.07;24.58
80699;BME280;70062;51.658;5.658;2023-12-07T04:55:47;101847.77;;;24.74;24.82
80699;BME280;70062;51.658;5.658;2023-12-07T04:58:15;101844.98;;;24.50;25.15
80699;BME280;70062;51.658;5.658;2023-12-07T05:00:40;101844.31;;;24.56;25.21
80699;BME280;70062;51.658;5.658;2023-12-07T05:03:06;101845.80;;;24.68;25.03
80699;BME280;70062;51.658;5.658;2023-12-07T05:05:31;101844.06;;;24.70;24.97
80699;BME280;70062;51.658;5.658;2023-12-07T05:07:56;101844.21;;;24.66;25.09
80699;BME280;70062;51.658;5.658;2023-12-07T05:10:22;101844.47;;;24.53;25.11
80699;BME280;70062;51.658;5.658;2023-12-07T05:12:47;101843.71;;;24.29;25.23
80699;BME280;70062;51.658;5.658;2023-12-07T05:15:12;101837.77;;;23.95;25.49
80699;BME280;70062;51.658;5.658;2023-12-07T05:17:42;101827.35;;;23.89;25.86
80699;BME280;70062;51.658;5.658;2023-12-07T05:20:08;101825.94;;;24.07;25.74
80699;BME280;70062;51.658;5.658;2023-12-07T05:22:33;101823.23;;;24.18;25.71
80699;BME280;70062;51.658;5.658;2023-12-07T05:24:58;101826.43;;;24.23;25.55
80699;BME280;70062;51.658;5.658;2023-12-07T05:27:24;101827.80;;;24.19;25.55
80699;BME280;70062;51.658;5.658;2023-12-07T05:29:49;101828.90;;;24.04;25.75
80699;BME280;70062;51.658;5.658;2023-12-07T05:32:14;101832.48;;;23.76;25.84
80699;BME280;70062;51.658;5.658;2023-12-07T05:34:40;101832.78;;;23.56;26.02
80699;BME280;70062;51.658;5.658;2023-12-07T05:37:06;101830.09;;;23.66;26.30
80699;BME280;70062;51.658;5.658;2023-12-07T05:39:31;101830.11;;;23.85;26.09
80699;BME280;70062;51.658;5.658;2023-12-07T05:41:57;101830.07;;;23.98;25.90
80699;BME280;70062;51.658;5.658;2023-12-07T05:44:22;101823.61;;;24.00;25.86
80699;BME280;70062;51.658;5.658;2023-12-07T05:46:49;101826.00;;;23.94;25.84
80699;BME280;70062;51.658;5.658;2023-12-07T05:49:14;101828.97;;;23.75;25.83
80699;BME280;70062;51.658;5.658;2023-12-07T05:51:40;101825.28;;;23.46;26.24
80699;BME280;70062;51.658;5.658;2023-12-07T05:54:05;101819.08;;;23.40;26.53
80699;BME280;70062;51.658;5.658;2023-12-07T05:56:31;101823.84;;;23.56;26.42
80699;BME280;70062;51.658;5.658;2023-12-07T05:58:56;101818.36;;;23.67;26.42
80699;BME280;70062;51.658;5.658;2023-12-07T06:01:22;101812.59;;;23.86;26.26
80699;BME280;70062;51.658;5.658;2023-12-07T06:03:49;101811.23;;;24.27;25.94
80699;BME280;70062;51.658;5.658;2023-12-07T06:06:14;101808.52;;;24.87;25.40
80699;BME280;70062;51.658;5.658;2023-12-07T06:08:40;101810.34;;;25.36;24.72
80699;BME280;70062;51.658;5.658;2023-12-07T06:11:05;101805.00;;;25.69;24.42
80699;BME280;70062;51.658;5.658;2023-12-07T06:13:30;101805.39;;;25.85;24.04
80699;BME280;70062;51.658;5.658;2023-12-07T06:15:56;101802.23;;;25.89;23.86
80699;BME280;70062;51.658;5.658;2023-12-07T06:18:21;101804.52;;;25.82;23.63
80699;BME280;70062;51.658;5.658;2023-12-07T06:20:47;101801.65;;;25.67;23.79
80699;BME280;70062;51.658;5.658;2023-12-07T06:23:12;101807.73;;;25.45;23.95
80699;BME280;70062;51.658;5.658;2023-12-07T06:25:38;101814.86;;;25.20;24.14
80699;BME280;70062;51.658;5.658;2023-12-07T06:28:04;101821.55;;;24.92;24.36
80699;BME280;70062;51.658;5.658;2023-12-07T06:30:30;101830.23;;;24.53;24.67
80699;BME280;70062;51.658;5.658;2023-12-07T06:32:55;101833.55;;;24.15;25.10
80699;BME280;70062;51.658;5.658;2023-12-07T06:35:21;101834.02;;;24.07;25.46
80699;BME280;70062;51.658;5.658;2023-12-07T06:37:46;101834.11;;;24.18;25.53
80699;BME280;70062;51.658;5.658;2023-12-07T06:40:12;101832.45;;;24.25;25.25
80699;BME280;70062;51.658;5.658;2023-12-07T06:42:37;101829.10;;;24.26;25.31
80699;BME280;70062;51.658;5.658;2023-12-07T06:45:03;101825.33;;;24.17;25.41
80699;BME280;70062;51.658;5.658;2023-12-07T06:47:28;101824.14;;;24.02;25.39
80699;BME280;70062;51.658;5.658;2023-12-07T06:49:54;101831.06;;;23.75;25.71
80699;BME280;70062;51.658;5.658;2023-12-07T06:52:23;101831.20;;;23.44;26.16
80699;BME280;70062;51.658;5.658;2023-12-07T06:54:49;101829.13;;;23.45;26.36
80699;BME280;70062;51.658;5.658;2023-12-07T06:57:14;101830.23;;;23.64;26.26
80699;BME280;70062;51.658;5.658;2023-12-07T06:59:40;101823.52;;;23.76;26.07
80699;BME280;70062;51.658;5.658;2023-12-07T07:02:06;101828.32;;;23.81;26.09
80699;BME280;70062;51.658;5.658;2023-12-07T07:04:31;101823.17;;;23.76;25.97
80699;BME280;70062;51.658;5.658;2023-12-07T07:06:57;101821.48;;;23.64;26.08
80699;BME280;70062;51.658;5.658;2023-12-07T07:09:22;101825.89;;;23.38;26.32
80699;BME280;70062;51.658;5.658;2023-12-07T07:11:48;101824.73;;;23.16;26.60
80699;BME280;70062;51.658;5.658;2023-12-07T07:14:14;101824.70;;;23.27;26.78
80699;BME280;70062;51.658;5.658;2023-12-07T07:16:39;101816.77;;;23.68;26.55
80699;BME280;70062;51.658;5.658;2023-12-07T07:19:05;101809.84;;;24.29;26.08
80699;BME280;70062;51.658;5.658;2023-12-07T07:21:31;101808.17;;;24.88;25.33
80699;BME280;70062;51.658;5.658;2023-12-07T07:23:56;101808.92;;;25.32;24.81
80699;BME280;70062;51.658;5.658;2023-12-07T07:26:22;101809.18;;;25.59;24.38
80699;BME280;70062;51.658;5.658;2023-12-07T07:28:47;101808.35;;;25.69;24.12
80699;BME280;70062;51.658;5.658;2023-12-07T07:31:13;101812.05;;;25.69;23.95
80699;BME280;70062;51.658;5.658;2023-12-07T07:33:38;101809.88;;;25.59;23.94
80699;BME280;70062;51.658;5.658;2023-12-07T07:36:03;101812.11;;;25.37;23.99
80699;BME280;70062;51.658;5.658;2023-12-07T07:38:29;101816.86;;;25.01;24.26
80699;BME280;70062;51.658;5.658;2023-12-07T07:40:54;101822.33;;;24.77;24.68
80699;BME280;70062;51.658;5.658;2023-12-07T07:43:20;101823.23;;;24.80;24.74
80699;BME280;70062;51.658;5.658;2023-12-07T07:45:45;101821.88;;;24.90;24.71
80699;BME280;70062;51.658;5.658;2023-12-07T07:48:11;101822.06;;;24.93;24.63
80699;BME280;70062;51.658;5.658;2023-12-07T07:50:37;101828.36;;;24.88;24.63
80699;BME280;70062;51.658;5.658;2023-12-07T08:04:36;101832.04;;;26.25;24.31
80699;BME280;70062;51.658;5.658;2023-12-07T08:07:02;101838.66;;;26.85;23.50
80699;BME280;70062;51.658;5.658;2023-12-07T08:09:27;101839.29;;;27.22;22.91
80699;BME280;70062;51.658;5.658;2023-12-07T08:11:52;101829.52;;;27.38;22.73
80699;BME280;70062;51.658;5.658;2023-12-07T08:14:18;101826.67;;;27.42;22.78
80699;BME280;70062;51.658;5.658;2023-12-07T08:16:46;101827.59;;;27.34;22.57
80699;BME280;70062;51.658;5.658;2023-12-07T08:19:12;101827.33;;;27.16;22.50
80699;BME280;70062;51.658;5.658;2023-12-07T08:21:38;101825.11;;;26.83;22.73
80699;BME280;70062;51.658;5.658;2023-12-07T08:24:04;101821.83;;;26.44;22.99
80699;BME280;70062;51.658;5.658;2023-12-07T08:26:30;101821.80;;;26.30;23.43
80699;BME280;70062;51.658;5.658;2023-12-07T08:28:56;101825.52;;;26.30;23.41
80699;BME280;70062;51.658;5.658;2023-12-07T08:31:21;101830.96;;;26.29;23.30
80699;BME280;70062;51.658;5.658;2023-12-07T08:33:48;101832.02;;;26.17;23.26
80699;BME280;70062;51.658;5.658;2023-12-07T08:36:13;101830.56;;;25.93;23.55
80699;BME280;70062;51.658;5.658;2023-12-07T08:38:39;101833.97;;;25.58;23.91
80699;BME280;70062;51.658;5.658;2023-12-07T08:41:04;101833.75;;;25.44;24.25
80699;BME280;70062;51.658;5.658;2023-12-07T08:43:29;101827.67;;;25.64;24.21
80699;BME280;70062;51.658;5.658;2023-12-07T08:45:55;101823.38;;;26.06;24.00
80699;BME280;70062;51.658;5.658;2023-12-07T08:48:21;101820.23;;;26.59;23.43
80699;BME280;70062;51.658;5.658;2023-12-07T08:50:46;101826.13;;;27.02;22.96
80699;BME280;70062;51.658;5.658;2023-12-07T08:53:11;101829.05;;;27.27;22.54
80699;BME280;70062;51.658;5.658;2023-12-07T08:55:37;101827.25;;;27.34;22.45
80699;BME280;70062;51.658;5.658;2023-12-07T08:58:03;101829.39;;;27.29;22.44
80699;BME280;70062;51.658;5.658;2023-12-07T09:00:32;101831.04;;;27.13;22.40
80699;BME280;70062;51.658;5.658;2023-12-07T09:02:58;101826.88;;;26.77;22.58
80699;BME280;70062;51.658;5.658;2023-12-07T09:05:23;101826.77;;;26.42;22.92
80699;BME280;70062;51.658;5.658;2023-12-07T09:07:49;101820.08;;;26.33;23.20
80699;BME280;70062;51.658;5.658;2023-12-07T09:10:14;101819.20;;;26.37;23.06
80699;BME280;70062;51.658;5.658;2023-12-07T09:12:40;101821.99;;;26.52;23.05
80699;BME280;70062;51.658;5.658;2023-12-07T09:15:06;101824.23;;;26.86;22.72
80699;BME280;70062;51.658;5.658;2023-12-07T09:17:35;101812.96;;;27.32;22.50
80699;BME280;70062;51.658;5.658;2023-12-07T09:20:01;101808.20;;;27.70;22.15
80699;BME280;70062;51.658;5.658;2023-12-07T09:22:26;101808.44;;;27.91;21.71
80699;BME280;70062;51.658;5.658;2023-12-07T09:24:51;101809.64;;;27.96;21.53
80699;BME280;70062;51.658;5.658;2023-12-07T09:27:17;101808.11;;;27.88;21.44
80699;BME280;70062;51.658;5.658;2023-12-07T09:29:42;101805.94;;;27.65;21.87
80699;BME280;70062;51.658;5.658;2023-12-07T09:32:07;101810.88;;;27.26;21.77
80699;BME280;70062;51.658;5.658;2023-12-07T09:34:33;101815.22;;;26.95;22.24
80699;BME280;70062;51.658;5.658;2023-12-07T09:37:08;101814.34;;;26.91;22.30
80699;BME280;70062;51.658;5.658;2023-12-07T09:39:34;101814.16;;;26.97;22.34
80699;BME280;70062;51.658;5.658;2023-12-07T09:41:59;101817.50;;;26.97;22.29
80699;BME280;70062;51.658;5.658;2023-12-07T09:44:26;101815.42;;;26.78;22.46
80699;BME280;70062;51.658;5.658;2023-12-07T09:46:52;101805.45;;;26.45;22.79
80699;BME280;70062;51.658;5.658;2023-12-07T09:49:17;101789.96;;;26.33;23.20
80699;BME280;70062;51.658;5.658;2023-12-07T09:51:44;101792.25;;;26.45;23.18
80699;BME280;70062;51.658;5.658;2023-12-07T09:54:11;101793.45;;;26.59;23.31
80699;BME280;70062;51.658;5.658;2023-12-07T09:56:37;101784.65;;;26.58;23.30
80699;BME280;70062;51.658;5.658;2023-12-07T09:59:02;101785.91;;;26.41;23.43
80699;BME280;70062;51.658;5.658;2023-12-07T10:01:29;101785.73;;;26.16;23.70
80699;BME280;70062;51.658;5.658;2023-12-07T10:04:28;101784.48;;;26.17;23.85
80699;BME280;70062;51.658;5.658;2023-12-07T10:06:53;101777.29;;;26.41;23.70
80699;BME280;70062;51.658;5.658;2023-12-07T10:09:19;101775.52;;;26.52;23.50
80699;BME280;70062;51.658;5.658;2023-12-07T10:11:46;101762.66;;;26.44;23.56
80699;BME280;70062;51.658;5.658;2023-12-07T10:14:12;101758.98;;;26.17;23.52
80699;BME280;70062;51.658;5.658;2023-12-07T10:16:37;101754.75;;;26.07;23.85
80699;BME280;70062;51.658;5.658;2023-12-07T10:19:16;101753.16;;;26.22;23.67
80699;BME280;70062;51.658;5.658;2023-12-07T10:21:47;101747.88;;;26.42;23.58
80699;BME280;70062;51.658;5.658;2023-12-07T10:24:13;101746.29;;;26.47;23.41
80699;BME280;70062;51.658;5.658;2023-12-07T10:26:39;101739.61;;;26.30;23.43
80699;BME280;70062;51.658;5.658;2023-12-07T10:29:05;101731.54;;;26.06;23.71
80699;BME280;70062;51.658;5.658;2023-12-07T10:31:31;101726.43;;;26.09;23.80
80699;BME280;70062;51.658;5.658;2023-12-07T10:33:58;101722.36;;;26.28;23.65
80699;BME280;70062;51.658;5.658;2023-12-07T10:36:24;101716.90;;;26.42;23.57
80699;BME280;70062;51.658;5.658;2023-12-07T10:38:49;101715.14;;;26.41;23.47
80699;BME280;70062;51.658;5.658;2023-12-07T10:41:18;101711.80;;;26.18;23.54
80699;BME280;70062;51.658;5.658;2023-12-07T10:43:49;101703.72;;;26.01;23.68
80699;BME280;70062;51.658;5.658;2023-12-07T10:46:15;101699.33;;;26.15;23.78
80699;BME280;70062;51.658;5.658;2023-12-07T10:48:44;101698.23;;;26.35;23.75
80699;BME280;70062;51.658;5.658;2023-12-07T10:51:17;101698.41;;;26.44;23.46
80699;BME280;70062;51.658;5.658;2023-12-07T10:53:45;101694.20;;;26.33;23.42
80699;BME280;70062;51.658;5.658;2023-12-07T10:56:44;101690.36;;;26.08;23.61
80699;BME280;70062;51.658;5.658;2023-12-07T10:59:10;101687.35;;;26.10;23.83
80699;BME280;70062;51.658;5.658;2023-12-07T11:01:39;101681.34;;;26.32;23.73
80699;BME280;70062;51.658;5.658;2023-12-07T11:04:05;101676.55;;;26.47;23.46
80699;BME280;70062;51.658;5.658;2023-12-07T11:06:32;101675.67;;;26.47;23.28
80699;BME280;70062;51.658;5.658;2023-12-07T11:09:00;101673.09;;;26.24;23.49
80699;BME280;70062;51.658;5.658;2023-12-07T11:11:36;101673.11;;;26.08;23.86
80699;BME280;70062;51.658;5.658;2023-12-07T11:14:07;101675.90;;;26.24;23.84
80699;BME280;70062;51.658;5.658;2023-12-07T11:16:35;101668.30;;;26.43;23.70
80699;BME280;70062;51.658;5.658;2023-12-07T11:19:01;101668.08;;;26.54;23.57
80699;BME280;70062;51.658;5.658;2023-12-07T11:21:27;101665.63;;;26.51;23.67
80699;BME280;70062;51.658;5.658;2023-12-07T11:23:53;101662.50;;;26.40;23.55
80699;BME280;70062;51.658;5.658;2023-12-07T11:26:25;101656.19;;;26.19;23.73
80699;BME280;70062;51.658;5.658;2023-12-07T11:28:52;101650.06;;;25.81;24.19
80699;BME280;70062;51.658;5.658;2023-12-07T11:31:20;101641.96;;;25.51;24.70
80699;BME280;70062;51.658;5.658;2023-12-07T11:33:46;101635.63;;;25.55;24.94
80699;BME280;70062;51.658;5.658;2023-12-07T11:36:13;101633.02;;;25.78;24.72
80699;BME280;70062;51.658;5.658;2023-12-07T11:41:35;101627.02;;;26.01;24.61
80699;BME280;70062;51.658;5.658;2023-12-07T11:44:05;101622.09;;;25.84;24.67
80699;BME280;70062;51.658;5.658;2023-12-07T11:46:30;101611.55;;;25.56;24.79
80699;BME280;70062;51.658;5.658;2023-12-07T11:48:57;101611.19;;;25.49;25.18
80699;BME280;70062;51.658;5.658;2023-12-07T11:51:24;101607.16;;;25.65;24.98
80699;BME280;70062;51.658;5.658;2023-12-07T11:53:49;101602.05;;;25.79;24.88
80699;BME280;70062;51.658;5.658;2023-12-07T11:56:16;101596.07;;;25.82;24.74
80699;BME280;70062;51.658;5.658;2023-12-07T11:58:45;101590.27;;;25.76;24.77
80699;BME280;70062;51.658;5.658;2023-12-07T12:01:11;101585.54;;;25.63;24.88
80699;BME280;70062;51.658;5.658;2023-12-07T12:03:37;101584.13;;;25.43;24.93
80699;BME280;70062;51.658;5.658;2023-12-07T12:06:05;101576.03;;;25.09;25.20
80699;BME280;70062;51.658;5.658;2023-12-07T12:08:31;101577.68;;;24.67;25.61
80699;BME280;70062;51.658;5.658;2023-12-07T12:10:57;101578.05;;;24.28;25.99
80699;BME280;70062;51.658;5.658;2023-12-07T12:13:29;101576.77;;;23.89;26.34
80699;BME280;70062;51.658;5.658;2023-12-07T12:15:56;101573.88;;;23.54;26.94
80699;BME280;70062;51.658;5.658;2023-12-07T12:18:21;101573.61;;;23.21;27.22
80699;BME280;70062;51.658;5.658;2023-12-07T12:20:47;101576.52;;;22.95;27.92
80699;BME280;70062;51.658;5.658;2023-12-07T12:23:12;101576.16;;;23.13;28.26
80699;BME280;70062;51.658;5.658;2023-12-07T12:25:37;101569.11;;;23.74;27.77
80699;BME280;70062;51.658;5.658;2023-12-07T12:28:04;101563.76;;;24.54;27.28
80699;BME280;70062;51.658;5.658;2023-12-07T12:30:31;101564.96;;;25.41;26.29
80699;BME280;70062;51.658;5.658;2023-12-07T12:32:57;101553.21;;;26.23;25.19
80699;BME280;70062;51.658;5.658;2023-12-07T12:35:25;101543.39;;;26.83;24.37
80699;BME280;70062;51.658;5.658;2023-12-07T12:37:50;101534.67;;;27.21;23.72
80699;BME280;70062;51.658;5.658;2023-12-07T12:40:17;101530.45;;;27.38;23.55
80699;BME280;70062;51.658;5.658;2023-12-07T12:42:45;101526.91;;;27.40;23.16
80699;BME280;70062;51.658;5.658;2023-12-07T12:45:11;101528.05;;;27.33;23.36
80699;BME280;70062;51.658;5.658;2023-12-07T12:47:38;101531.20;;;27.15;23.09
80699;BME280;70062;51.658;5.658;2023-12-07T12:50:03;101522.55;;;26.91;23.32
80699;BME280;70062;51.658;5.658;2023-12-07T12:52:30;101514.70;;;26.55;23.47
80699;BME280;70062;51.658;5.658;2023-12-07T12:54:56;101511.04;;;26.07;23.93
80699;BME280;70062;51.658;5.658;2023-12-07T12:57:22;101515.70;;;25.77;24.53
80699;BME280;70062;51.658;5.658;2023-12-07T12:59:48;101513.95;;;25.78;24.66
80699;BME280;70062;51.658;5.658;2023-12-07T13:02:13;101511.80;;;25.86;24.63
80699;BME280;70062;51.658;5.658;2023-12-07T13:04:39;101503.02;;;25.86;24.55
80699;BME280;70062;51.658;5.658;2023-12-07T13:07:05;101493.55;;;25.77;24.55
80699;BME280;70062;51.658;5.658;2023-12-07T13:09:30;101487.42;;;25.56;24.74
80699;BME280;70062;51.658;5.658;2023-12-07T13:11:57;101476.23;;;25.19;24.97
80699;BME280;70062;51.658;5.658;2023-12-07T13:14:23;101474.65;;;24.96;25.60
80699;BME280;70062;51.658;5.658;2023-12-07T13:16:48;101468.52;;;25.07;25.63
80699;BME280;70062;51.658;5.658;2023-12-07T13:19:13;101457.03;;;25.47;25.38
80699;BME280;70062;51.658;5.658;2023-12-07T13:21:39;101446.48;;;26.03;24.91
80699;BME280;70062;51.658;5.658;2023-12-07T13:24:04;101447.25;;;26.57;24.53
80699;BME280;70062;51.658;5.658;2023-12-07T13:26:30;101459.10;;;26.95;23.73
80699;BME280;70062;51.658;5.658;2023-12-07T13:28:56;101458.41;;;27.15;23.53